Aérodrome :
LOGIN :

S'inscrire | Disclaimer

   EN    FR    IT 

 










Légende :    VFR   VFR Marginal   IFR   IFR Intensif   IFR Très Intensif
Visi : 
Plafond : 
>= 8 km
>= 3000ft
5 à 8 km
1000 à 3000 ft
1500m à 5 km
500 à 1000 ft
800 à 1500m
200 à 500 ft
< 800m
< 200 ft
Symboles :   Orages  Brouillard  Fortes neiges  Fortes précipitations  Vent > 20 kt
SIGMETs :   Divers  Orages  Givrage  Turbulence  Onde Orograph.  Cendres Volcan.







- Altitude de l'aérodrome : 156 ft
- Code IATA : LCC


LIBN - Lecce Galatine (military)

DERNIER METAR :
  • 291655Z 01016KT 9999 SCT025 15/15 Q1011 RMK BKN SCT120 VIS MIN 9999 WIND THR14 01017KT WIND THR32 36018KT BLU

METARs EXPIRÉS :
  • 291555Z 36023KT 9999 SCT025 16/14 Q1012 RMK OVC BKN130 VIS MIN 9999 WIND THR14 01016G28KT WIND THR32 36021KT BLU
  • 291455Z 01018G28KT 9999 BKN020 17/16 Q1012 RMK OVC BKN120 VIS MIN 9999 WIND THR14 01020KT WIND THR32 01020KT WHT

Prévision TAF périmée.
Pas de NOTAMs connus pour ce terrain.



MET'MAP, la Météo Aéronautique d'un coup d'oeil ! - Copyright ORBIFLY Décembre 2007 - Disclaimer

ORBIFLY MET'MAP TEAM :

Programmation & Développement : Alexandra Zaïnal
Conception & Développement : Baudouin d'Aumeries
Co-Programmation & Développement : Marc-Olivier Méhu
Soutien technique & logistique : Manuel Goepfert

Contact : metmap@orbifly.com




SOURCES & CREDITS :

   NOAA